Time,TemperatureF,DewpointF,PressureIn,WindDirection,WindDirectionDegrees,WindSpeedMPH,WindSpeedGustMPH,Humidity,HourlyPrecipIn,Conditions,Clouds,dailyrainin,SoftwareType,DateUTC
2013-06-04 00:00:00,75.1,61.7,29.96,SE,135,0.0,5.0,63,0.00,,---,0.00,VWS V14.01,2013-06-04 04:00:00,
2013-06-04 00:10:00,75.6,63.0,29.96,SE,135,0.0,1.0,65,0.00,,---,0.00,VWS V14.01,2013-06-04 04:10:00,
2013-06-04 00:20:00,75.3,62.3,29.96,North,0,0.0,2.0,64,0.00,,---,0.00,VWS V14.01,2013-06-04 04:20:00,
2013-06-04 00:30:00,73.7,61.7,29.97,NNE,22,0.0,5.0,66,0.00,,---,0.00,VWS V14.01,2013-06-04 04:30:00,
2013-06-04 00:40:00,72.5,62.2,29.97,NNE,22,0.0,6.0,70,0.00,,---,0.00,VWS V14.01,2013-06-04 04:40:00,
2013-06-04 00:50:00,72.5,63.0,29.96,ENE,68,0.0,3.0,72,0.00,,---,0.00,VWS V14.01,2013-06-04 04:50:00,
2013-06-04 01:00:00,73.3,62.5,29.97,SE,135,0.0,1.0,69,0.00,,---,0.00,VWS V14.01,2013-06-04 05:00:00,
2013-06-04 01:10:00,74.2,62.5,29.97,NNE,22,0.0,3.0,67,0.00,,---,0.00,VWS V14.01,2013-06-04 05:10:00,
2013-06-04 01:20:00,74.7,63.5,29.96,NNE,22,0.0,1.0,68,0.00,,---,0.00,VWS V14.01,2013-06-04 05:20:00,
2013-06-04 01:30:00,74.9,62.8,29.96,NNE,22,0.0,0.0,66,0.00,,---,0.00,VWS V14.01,2013-06-04 05:30:00,
2013-06-04 01:40:00,75.6,63.5,29.96,North,0,0.0,3.0,66,0.00,,---,0.00,VWS V14.01,2013-06-04 05:40:00,
2013-06-04 01:50:00,75.3,62.3,29.95,SE,135,0.0,6.0,64,0.00,,---,0.00,VWS V14.01,2013-06-04 05:50:00,
2013-06-04 02:00:00,74.6,62.5,29.96,SSE,158,0.0,3.0,66,0.00,,---,0.00,VWS V14.01,2013-06-04 06:00:00,
2013-06-04 02:10:00,75.1,63.0,29.96,NE,45,0.0,3.0,66,0.00,,---,0.00,VWS V14.01,2013-06-04 06:10:00,
2013-06-04 02:20:00,74.9,61.9,29.96,ESE,112,0.0,1.0,64,0.00,,---,0.00,VWS V14.01,2013-06-04 06:20:00,
2013-06-04 02:30:00,75.3,62.3,29.96,East,90,0.0,1.0,64,0.00,,---,0.00,VWS V14.01,2013-06-04 06:30:00,
2013-06-04 02:40:00,76.0,63.0,29.96,East,90,0.0,2.0,64,0.00,,---,0.00,VWS V14.01,2013-06-04 06:40:00,
2013-06-04 02:50:00,76.1,63.0,29.95,East,90,0.0,6.0,64,0.00,,---,0.00,VWS V14.01,2013-06-04 06:50:00,
2013-06-04 03:00:00,76.5,61.6,29.94,East,90,0.0,1.0,60,0.00,,---,0.00,VWS V14.01,2013-06-04 07:00:00,
2013-06-04 03:10:00,76.1,60.8,29.94,SSE,158,0.0,5.0,59,0.00,,---,0.00,VWS V14.01,2013-06-04 07:10:00,
2013-06-04 03:20:00,76.1,61.7,29.95,SSE,158,0.0,0.0,61,0.00,,---,0.00,VWS V14.01,2013-06-04 07:20:00,
2013-06-04 03:30:00,75.6,61.7,29.94,SE,135,0.0,1.0,62,0.00,,---,0.00,VWS V14.01,2013-06-04 07:30:00,
2013-06-04 03:40:00,75.8,62.3,29.94,SE,135,0.0,0.0,63,0.00,,---,0.00,VWS V14.01,2013-06-04 07:40:00,
2013-06-04 03:50:00,76.1,62.2,29.95,NNE,22,0.0,1.0,62,0.00,,---,0.00,VWS V14.01,2013-06-04 07:50:00,
2013-06-04 04:00:00,76.3,61.9,29.94,NE,45,0.0,3.0,61,0.00,,---,0.00,VWS V14.01,2013-06-04 08:00:00,
2013-06-04 04:10:00,76.7,62.2,29.94,NE,45,0.0,0.0,61,0.00,,---,0.00,VWS V14.01,2013-06-04 08:10:00,
2013-06-04 04:20:00,76.8,62.8,29.94,NE,45,0.0,0.0,62,0.00,,---,0.00,VWS V14.01,2013-06-04 08:20:00,
2013-06-04 04:30:00,76.5,61.1,29.94,North,0,0.0,3.0,59,0.00,,---,0.00,VWS V14.01,2013-06-04 08:30:00,
2013-06-04 04:40:00,76.0,63.0,29.94,East,90,0.0,1.0,64,0.00,,---,0.00,VWS V14.01,2013-06-04 08:40:00,
2013-06-04 04:50:00,75.8,62.8,29.94,East,90,0.0,1.0,64,0.00,,---,0.00,VWS V14.01,2013-06-04 08:50:00,
2013-06-04 05:00:00,75.4,62.8,29.94,East,90,0.0,0.0,65,0.00,,---,0.00,VWS V14.01,2013-06-04 09:00:00,
2013-06-04 05:10:00,74.9,61.9,29.94,ENE,68,0.0,2.0,64,0.00,,---,0.00,VWS V14.01,2013-06-04 09:10:00,
2013-06-04 05:20:00,74.2,61.7,29.94,ENE,68,0.0,1.0,65,0.00,,---,0.00,VWS V14.01,2013-06-04 09:20:00,
2013-06-04 05:30:00,73.7,61.7,29.94,SE,135,0.0,2.0,66,0.00,,---,0.00,VWS V14.01,2013-06-04 09:30:00,
2013-06-04 05:40:00,73.2,62.0,29.94,SE,135,0.0,1.0,68,0.00,,---,0.00,VWS V14.01,2013-06-04 09:40:00,
2013-06-04 05:50:00,73.0,62.2,29.95,SE,135,0.0,2.0,69,0.00,,---,0.00,VWS V14.01,2013-06-04 09:50:00,
2013-06-04 06:00:00,72.5,61.8,29.95,SE,135,0.0,1.0,69,0.00,,---,0.00,VWS V14.01,2013-06-04 10:00:00,
2013-06-04 06:10:00,72.3,62.4,29.95,SE,135,0.0,1.0,71,0.00,,---,0.00,VWS V14.01,2013-06-04 10:10:00,
2013-06-04 06:20:00,72.0,62.1,29.95,SE,135,0.0,1.0,71,0.00,,---,0.00,VWS V14.01,2013-06-04 10:20:00,
2013-06-04 06:30:00,71.6,61.3,29.95,SE,135,0.0,1.0,70,0.00,,---,0.00,VWS V14.01,2013-06-04 10:30:00,
2013-06-04 06:40:00,71.1,61.6,29.95,SE,135,0.0,0.0,72,0.00,,---,0.00,VWS V14.01,2013-06-04 10:40:00,
2013-06-04 06:50:00,70.8,61.7,29.96,SE,135,0.0,0.0,73,0.00,,---,0.00,VWS V14.01,2013-06-04 10:50:00,
2013-06-04 07:00:00,70.6,61.9,29.96,SSE,158,0.0,1.0,74,0.00,,---,0.00,VWS V14.01,2013-06-04 11:00:00,
2013-06-04 07:10:00,70.3,61.6,29.96,SSE,158,0.0,0.0,74,0.00,,---,0.00,VWS V14.01,2013-06-04 11:10:00,
2013-06-04 07:20:00,69.9,61.6,29.95,SSE,158,0.0,0.0,75,0.00,,---,0.00,VWS V14.01,2013-06-04 11:20:00,
2013-06-04 07:30:00,69.6,61.3,29.96,SSE,158,0.0,0.0,75,0.00,,---,0.00,VWS V14.01,2013-06-04 11:30:00,
2013-06-04 07:40:00,69.3,61.4,29.96,SSE,158,0.0,0.0,76,0.00,,---,0.00,VWS V14.01,2013-06-04 11:40:00,
2013-06-04 07:50:00,68.9,61.4,29.97,SSE,158,0.0,0.0,77,0.00,,---,0.00,VWS V14.01,2013-06-04 11:50:00,
2013-06-04 08:00:00,68.4,61.3,29.97,SSE,158,0.0,0.0,78,0.00,,---,0.00,VWS V14.01,2013-06-04 12:00:00,
2013-06-04 08:10:00,68.1,61.3,29.97,SSE,158,0.0,0.0,79,0.00,,---,0.00,VWS V14.01,2013-06-04 12:10:00,
2013-06-04 08:20:00,67.9,61.2,29.97,SSE,158,0.0,1.0,79,0.00,,---,0.00,VWS V14.01,2013-06-04 12:20:00,
2013-06-04 08:30:00,67.8,61.4,29.98,SSE,158,0.0,0.0,80,0.00,,---,0.00,VWS V14.01,2013-06-04 12:30:00,
2013-06-04 08:40:00,67.3,60.9,29.98,SSE,158,0.0,0.0,80,0.00,,---,0.00,VWS V14.01,2013-06-04 12:40:00,
2013-06-04 08:50:00,67.1,61.1,29.99,SSE,158,0.0,0.0,81,0.00,,---,0.00,VWS V14.01,2013-06-04 12:50:00,
2013-06-04 09:00:00,66.8,60.8,29.99,SSE,158,0.0,1.0,81,0.00,,---,0.00,VWS V14.01,2013-06-04 13:00:00,
2013-06-04 09:10:00,66.6,60.9,29.99,SSE,158,0.0,0.0,82,0.00,,---,0.00,VWS V14.01,2013-06-04 13:10:00,
2013-06-04 09:20:00,66.4,61.1,29.98,SSE,158,0.0,0.0,83,0.00,,---,0.00,VWS V14.01,2013-06-04 13:20:00,
2013-06-04 09:30:00,66.3,61.0,29.99,SSE,158,0.0,2.0,83,0.00,,---,0.00,VWS V14.01,2013-06-04 13:30:00,
2013-06-04 09:40:00,66.1,60.8,29.99,SSE,158,0.0,0.0,83,0.00,,---,0.00,VWS V14.01,2013-06-04 13:40:00,
2013-06-04 09:50:00,66.0,61.0,29.99,SSE,158,0.0,1.0,84,0.00,,---,0.00,VWS V14.01,2013-06-04 13:50:00,
2013-06-04 10:00:00,66.0,61.0,30.00,SSE,158,0.0,0.0,84,0.00,,---,0.00,VWS V14.01,2013-06-04 14:00:00,
2013-06-04 10:10:00,66.0,60.7,30.00,SSE,158,0.0,0.0,83,0.00,,---,0.00,VWS V14.01,2013-06-04 14:10:00,
2013-06-04 10:20:00,65.8,60.8,29.98,SSE,158,0.0,1.0,84,0.00,,---,0.00,VWS V14.01,2013-06-04 14:20:00,
2013-06-04 10:30:00,65.6,60.6,29.99,SSE,158,0.0,1.0,84,0.00,,---,0.00,VWS V14.01,2013-06-04 14:30:00,
2013-06-04 10:40:00,65.6,60.6,29.99,SSE,158,0.0,2.0,84,0.00,,---,0.00,VWS V14.01,2013-06-04 14:40:00,
2013-06-04 10:50:00,65.5,60.5,29.99,SSE,158,0.0,1.0,84,0.00,,---,0.00,VWS V14.01,2013-06-04 14:50:00,
2013-06-04 11:00:00,65.5,60.2,30.00,SSE,158,0.0,3.0,83,0.00,,---,0.00,VWS V14.01,2013-06-04 15:00:00,
2013-06-04 11:10:00,65.5,60.5,30.00,SSE,158,0.0,0.0,84,0.00,,---,0.00,VWS V14.01,2013-06-04 15:10:00,
2013-06-04 11:20:00,65.3,60.3,29.99,SSE,158,0.0,0.0,84,0.00,,---,0.00,VWS V14.01,2013-06-04 15:20:00,
2013-06-04 11:30:00,65.3,60.3,29.99,SSW,202,0.0,5.0,84,0.00,,---,0.00,VWS V14.01,2013-06-04 15:30:00,
2013-06-04 11:40:00,65.2,60.2,29.99,SSW,202,0.0,0.0,84,0.00,,---,0.00,VWS V14.01,2013-06-04 15:40:00,
2013-06-04 11:50:00,65.2,60.2,29.99,SSW,202,0.0,0.0,84,0.00,,---,0.00,VWS V14.01,2013-06-04 15:50:00,
2013-06-04 12:00:00,65.2,60.2,29.99,SSW,202,0.0,0.0,84,0.00,,---,0.00,VWS V14.01,2013-06-04 16:00:00,
2013-06-04 12:10:00,65.0,60.0,29.99,SSW,202,0.0,0.0,84,0.00,,---,0.00,VWS V14.01,2013-06-04 16:10:00,
2013-06-04 12:20:00,64.8,59.9,29.99,SSW,202,0.0,0.0,84,0.00,,---,0.00,VWS V14.01,2013-06-04 16:20:00,
2013-06-04 12:30:00,64.5,59.6,29.98,SSW,202,0.0,0.0,84,0.00,,---,0.00,VWS V14.01,2013-06-04 16:30:00,
2013-06-04 12:40:00,64.3,59.7,29.98,SSW,202,0.0,0.0,85,0.00,,---,0.00,VWS V14.01,2013-06-04 16:40:00,
2013-06-04 12:50:00,64.3,59.7,29.99,SSW,202,0.0,0.0,85,0.00,,---,0.00,VWS V14.01,2013-06-04 16:50:00,
2013-06-04 13:00:00,64.3,59.7,29.99,SSW,202,0.0,0.0,85,0.00,,---,0.00,VWS V14.01,2013-06-04 17:00:00,
2013-06-04 13:10:00,64.3,59.7,29.99,South,180,0.0,1.0,85,0.00,,---,0.00,VWS V14.01,2013-06-04 17:10:00,
2013-06-04 13:20:00,64.3,60.0,29.98,South,180,0.0,0.0,86,0.00,,---,0.00,VWS V14.01,2013-06-04 17:20:00,
2013-06-04 13:30:00,64.3,60.0,29.98,South,180,0.0,0.0,86,0.00,,---,0.00,VWS V14.01,2013-06-04 17:30:00,
2013-06-04 13:40:00,64.3,60.0,29.98,South,180,0.0,0.0,86,0.00,,---,0.00,VWS V14.01,2013-06-04 17:40:00,
2013-06-04 13:50:00,64.3,59.7,29.98,South,180,0.0,0.0,85,0.00,,---,0.00,VWS V14.01,2013-06-04 17:50:00,
2013-06-04 14:00:00,64.2,59.6,29.98,South,180,0.0,1.0,85,0.00,,---,0.00,VWS V14.01,2013-06-04 18:00:00,
2013-06-04 14:10:00,64.2,59.6,29.98,South,180,0.0,0.0,85,0.00,,---,0.00,VWS V14.01,2013-06-04 18:10:00,
2013-06-04 14:20:00,64.2,59.6,29.98,South,180,0.0,1.0,85,0.00,,---,0.00,VWS V14.01,2013-06-04 18:20:00,
2013-06-04 14:30:00,64.2,59.6,29.98,South,180,0.0,1.0,85,0.00,,---,0.00,VWS V14.01,2013-06-04 18:30:00,
2013-06-04 14:40:00,64.0,59.4,29.98,South,180,0.0,0.0,85,0.00,,---,0.00,VWS V14.01,2013-06-04 18:40:00,
2013-06-04 14:50:00,64.0,59.4,29.98,South,180,0.0,0.0,85,0.00,,---,0.00,VWS V14.01,2013-06-04 18:50:00,
2013-06-04 15:00:00,64.0,59.7,29.97,SSE,158,0.0,2.0,86,0.00,,---,0.00,VWS V14.01,2013-06-04 19:00:00,
2013-06-04 15:10:00,64.0,59.7,29.97,SE,135,0.0,2.0,86,0.00,,---,0.00,VWS V14.01,2013-06-04 19:10:00,
2013-06-04 15:20:00,63.9,59.6,29.96,SE,135,0.0,0.0,86,0.00,,---,0.00,VWS V14.01,2013-06-04 19:20:00,
2013-06-04 15:30:00,63.7,59.4,29.96,SE,135,0.0,0.0,86,0.00,,---,0.00,VWS V14.01,2013-06-04 19:30:00,
2013-06-04 15:40:00,63.7,59.8,29.96,SSE,158,0.0,3.0,87,0.00,,---,0.00,VWS V14.01,2013-06-04 19:40:00,
2013-06-04 15:50:00,63.7,59.8,29.95,SSE,158,0.0,0.0,87,0.00,,---,0.00,VWS V14.01,2013-06-04 19:50:00,
2013-06-04 16:00:00,63.7,59.8,29.95,SSE,158,0.0,0.0,87,0.00,,---,0.00,VWS V14.01,2013-06-04 20:00:00,
2013-06-04 16:10:00,63.5,59.6,29.95,SSE,158,0.0,0.0,87,0.00,,---,0.00,VWS V14.01,2013-06-04 20:10:00,
2013-06-04 16:20:00,63.5,59.6,29.97,SSE,158,0.0,0.0,87,0.00,,---,0.00,VWS V14.01,2013-06-04 20:20:00,
2013-06-04 16:30:00,63.4,59.8,29.97,WSW,248,0.0,1.0,88,0.00,,---,0.00,VWS V14.01,2013-06-04 20:30:00,
2013-06-04 16:40:00,63.4,59.8,29.97,WSW,248,0.0,0.0,88,0.00,,---,0.00,VWS V14.01,2013-06-04 20:40:00,
2013-06-04 16:50:00,63.4,59.8,29.97,WSW,248,0.0,0.0,88,0.00,,---,0.00,VWS V14.01,2013-06-04 20:50:00,
2013-06-04 17:00:00,63.4,60.1,29.98,WSW,248,0.0,0.0,89,0.00,,---,0.00,VWS V14.01,2013-06-04 21:00:00,
2013-06-04 17:10:00,63.2,59.9,29.98,WSW,248,0.0,0.0,89,0.00,,---,0.00,VWS V14.01,2013-06-04 21:10:00,
2013-06-04 17:20:00,63.2,59.9,29.98,WSW,248,0.0,0.0,89,0.00,,---,0.00,VWS V14.01,2013-06-04 21:20:00,
2013-06-04 17:30:00,63.1,59.8,29.98,WSW,248,0.0,0.0,89,0.00,,---,0.00,VWS V14.01,2013-06-04 21:30:00,
2013-06-04 17:40:00,62.9,59.9,29.98,WSW,248,0.0,1.0,90,0.00,,---,0.00,VWS V14.01,2013-06-04 21:40:00,
2013-06-04 17:50:00,62.9,59.9,29.97,WSW,248,0.0,0.0,90,0.00,,---,0.00,VWS V14.01,2013-06-04 21:50:00,
2013-06-04 18:00:00,62.7,59.7,29.98,WSW,248,0.0,0.0,90,0.00,,---,0.00,VWS V14.01,2013-06-04 22:00:00,
2013-06-04 18:10:00,62.6,59.6,29.98,WSW,248,0.0,0.0,90,0.00,,---,0.00,VWS V14.01,2013-06-04 22:10:00,
2013-06-04 18:20:00,62.4,59.4,29.99,WSW,248,0.0,0.0,90,0.00,,---,0.00,VWS V14.01,2013-06-04 22:20:00,
2013-06-04 18:30:00,62.4,59.7,30.01,WSW,248,0.0,0.0,91,0.00,,---,0.00,VWS V14.01,2013-06-04 22:30:00,
2013-06-04 18:40:00,62.4,59.7,30.01,WSW,248,0.0,0.0,91,0.00,,---,0.00,VWS V14.01,2013-06-04 22:40:00,
2013-06-04 18:50:00,62.4,59.7,30.01,WSW,248,0.0,0.0,91,0.00,,---,0.00,VWS V14.01,2013-06-04 22:50:00,
2013-06-04 19:00:00,62.4,59.7,30.00,WSW,248,0.0,0.0,91,0.00,,---,0.00,VWS V14.01,2013-06-04 23:00:00,
2013-06-04 19:10:00,62.6,60.2,30.00,SW,225,0.0,1.0,92,0.00,,---,0.00,VWS V14.01,2013-06-04 23:10:00,
2013-06-04 19:20:00,62.6,60.2,30.02,SW,225,0.0,0.0,92,0.00,,---,0.00,VWS V14.01,2013-06-04 23:20:00,
2013-06-04 19:30:00,62.9,60.5,30.02,SW,225,0.0,0.0,92,0.00,,---,0.00,VWS V14.01,2013-06-04 23:30:00,
2013-06-04 19:40:00,63.1,60.7,30.02,SW,225,0.0,1.0,92,0.00,,---,0.00,VWS V14.01,2013-06-04 23:40:00,
2013-06-04 19:50:00,63.1,60.4,30.02,SW,225,0.0,1.0,91,0.00,,---,0.00,VWS V14.01,2013-06-04 23:50:00,
2013-06-04 20:00:00,63.2,60.5,30.02,SW,225,0.0,1.0,91,0.00,,---,0.00,VWS V14.01,2013-06-05 00:00:00,
2013-06-04 20:10:00,63.2,60.5,30.02,SW,225,0.0,1.0,91,0.00,,---,0.00,VWS V14.01,2013-06-05 00:10:00,
2013-06-04 20:20:00,63.2,60.5,30.02,SW,225,0.0,2.0,91,0.00,,---,0.00,VWS V14.01,2013-06-05 00:20:00,
2013-06-04 20:30:00,63.5,60.8,30.02,SW,225,0.0,0.0,91,0.00,,---,0.00,VWS V14.01,2013-06-05 00:30:00,
2013-06-04 20:40:00,64.0,61.3,30.02,SW,225,0.0,0.0,91,0.00,,---,0.00,VWS V14.01,2013-06-05 00:40:00,
2013-06-04 20:50:00,64.3,61.3,30.02,SW,225,0.0,1.0,90,0.00,,---,0.00,VWS V14.01,2013-06-05 00:50:00,
2013-06-04 21:00:00,64.3,61.0,30.02,SW,225,0.0,1.0,89,0.00,,---,0.00,VWS V14.01,2013-06-05 01:00:00,
2013-06-04 21:10:00,65.0,61.7,30.02,SSW,202,0.0,1.0,89,0.00,,---,0.00,VWS V14.01,2013-06-05 01:10:00,
2013-06-04 21:20:00,65.8,62.5,30.02,SSW,202,0.0,0.0,89,0.00,,---,0.00,VWS V14.01,2013-06-05 01:20:00,
2013-06-04 21:30:00,66.4,62.1,30.02,SSW,202,0.0,0.0,86,0.00,,---,0.00,VWS V14.01,2013-06-05 01:30:00,
2013-06-04 21:40:00,66.6,62.0,30.02,SSW,202,0.0,0.0,85,0.00,,---,0.00,VWS V14.01,2013-06-05 01:40:00,
2013-06-04 21:50:00,66.8,62.2,30.02,SSW,202,0.0,0.0,85,0.00,,---,0.00,VWS V14.01,2013-06-05 01:50:00,
2013-06-04 22:00:00,67.6,62.9,30.02,SSW,202,0.0,0.0,85,0.00,,---,0.00,VWS V14.01,2013-06-05 02:00:00,
2013-06-04 22:10:00,68.6,62.9,30.02,SSW,202,0.0,0.0,82,0.00,,---,0.00,VWS V14.01,2013-06-05 02:10:00,
2013-06-04 22:20:00,70.1,62.9,30.00,ESE,112,0.0,1.0,78,0.00,,---,0.00,VWS V14.01,2013-06-05 02:20:00,
2013-06-04 22:30:00,70.4,62.5,30.00,ESE,112,0.0,2.0,76,0.00,,---,0.00,VWS V14.01,2013-06-05 02:30:00,
2013-06-04 22:40:00,70.8,62.9,30.00,ESE,112,0.0,0.0,76,0.00,,---,0.00,VWS V14.01,2013-06-05 02:40:00,
2013-06-04 22:50:00,71.1,62.8,30.00,ESE,112,0.0,1.0,75,0.00,,---,0.00,VWS V14.01,2013-06-05 02:50:00,
2013-06-04 23:00:00,72.3,63.9,29.98,ESE,112,0.0,2.0,75,0.00,,---,0.00,VWS V14.01,2013-06-05 03:00:00,
2013-06-04 23:10:00,73.0,63.0,29.98,ESE,112,0.0,2.0,71,0.00,,---,0.00,VWS V14.01,2013-06-05 03:10:00,
2013-06-04 23:20:00,73.2,63.2,29.98,ENE,68,0.0,2.0,71,0.00,,---,0.00,VWS V14.01,2013-06-05 03:20:00,
2013-06-04 23:30:00,72.8,63.7,29.98,ENE,68,0.0,0.0,73,0.00,,---,0.00,VWS V14.01,2013-06-05 03:30:00,
2013-06-04 23:40:00,73.0,63.5,29.98,ENE,68,0.0,0.0,72,0.00,,---,0.00,VWS V14.01,2013-06-05 03:40:00,
2013-06-04 23:50:00,72.8,63.7,29.98,NNW,338,0.0,2.0,73,0.00,,---,0.00,VWS V14.01,2013-06-05 03:50:00,